Schedule Details


Flight Number: CTN367
Departure: Alexander The Great (LWSK) at 05:45
Arrival: Franjo Tudman (LDZA) at 07:05
Route: GOSTI P92 MAVAR UY400 RETRA UL604 BOSNA UL608 KOMAR L187 TEBLI

Weather Information
LWSK 290200Z 00000KT 0700 R34/0700U FG BKN003 01/01 Q1010 NOSIG
LDZA 290130Z 01004KT 340V080 9999 -SHRA BKN009 FEW030TCU 02/01 Q1010 TEMPO -TSRA FEW040CB
Schedule Frequency

Route Map